createdAt,value
2022-10-30T00:02:09.440Z,11.33
2022-10-30T00:07:11.148Z,11.37
2022-10-30T00:12:12.733Z,11.30
2022-10-30T00:17:14.644Z,11.27
2022-10-30T00:22:16.240Z,11.11
2022-10-30T00:27:18.071Z,11.05
2022-10-30T00:32:19.630Z,11.19
2022-10-30T00:37:21.208Z,11.29
2022-10-30T00:42:22.836Z,11.14
2022-10-30T00:47:38.009Z,11.29
2022-10-30T00:52:44.550Z,11.27
2022-10-30T00:57:47.436Z,11.34
2022-10-30T01:02:50.556Z,11.35
2022-10-30T01:07:52.079Z,11.28
2022-10-30T01:12:56.363Z,11.30
2022-10-30T01:18:31.269Z,11.19
2022-10-30T01:23:56.139Z,10.97
2022-10-30T01:29:25.948Z,10.84
2022-10-30T01:34:35.317Z,10.57
2022-10-30T01:39:39.802Z,10.46
2022-10-30T01:44:41.509Z,10.57
2022-10-30T01:50:16.945Z,10.79
2022-10-30T01:55:31.146Z,10.77
2022-10-30T02:00:32.912Z,10.42
2022-10-30T02:05:42.933Z,10.23
2022-10-30T02:10:47.995Z,10.33
2022-10-30T02:15:50.365Z,10.40
2022-10-30T02:20:53.861Z,10.23
2022-10-30T02:25:55.571Z,10.13
2022-10-30T02:30:57.489Z,10.24
2022-10-30T02:35:59.488Z,10.40
2022-10-30T02:41:01.065Z,10.29
2022-10-30T02:46:03.738Z,10.46
2022-10-30T02:51:05.411Z,10.43
2022-10-30T02:56:09.472Z,10.60
2022-10-30T03:01:17.330Z,10.67
2022-10-30T03:06:19.175Z,10.82
2022-10-30T03:11:21.158Z,10.78
2022-10-30T03:16:31.920Z,10.93
2022-10-30T03:21:35.292Z,10.92
2022-10-30T03:26:36.867Z,11.17
2022-10-30T03:31:41.063Z,11.42
2022-10-30T03:36:47.136Z,11.36
2022-10-30T03:41:49.114Z,11.35
2022-10-30T03:46:50.638Z,11.39
2022-10-30T03:52:03.882Z,11.53
2022-10-30T03:57:05.938Z,11.53
2022-10-30T04:02:34.830Z,11.57
2022-10-30T04:07:36.551Z,11.90
2022-10-30T04:12:38.317Z,12.09
2022-10-30T04:17:39.865Z,12.05
2022-10-30T04:22:41.628Z,12.03
2022-10-30T04:27:44.392Z,12.28
2022-10-30T04:32:47.673Z,12.15
2022-10-30T04:38:10.442Z,11.90
2022-10-30T04:43:13.288Z,11.54
2022-10-30T04:48:17.385Z,11.31
2022-10-30T04:53:19.571Z,11.13
2022-10-30T04:58:24.107Z,11.24
2022-10-30T05:03:40.192Z,11.19
2022-10-30T05:08:48.927Z,11.07
2022-10-30T05:14:06.202Z,11.11
2022-10-30T05:19:08.367Z,10.98
2022-10-30T05:24:10.162Z,11.04
2022-10-30T05:29:18.454Z,10.84
2022-10-30T05:34:20.084Z,10.67
2022-10-30T05:39:25.392Z,10.63
2022-10-30T05:44:40.768Z,10.95
2022-10-30T05:49:48.938Z,10.97
2022-10-30T05:54:54.346Z,10.99
2022-10-30T06:00:05.320Z,11.27
2022-10-30T06:05:16.902Z,11.36
2022-10-30T06:10:18.799Z,11.32
2022-10-30T06:15:38.100Z,11.74
2022-10-30T06:20:39.819Z,11.74
2022-10-30T06:26:13.765Z,11.85
2022-10-30T06:36:25.494Z,11.97
2022-10-30T06:41:30.564Z,12.07
2022-10-30T06:46:58.237Z,12.40
2022-10-30T06:51:59.818Z,12.32
2022-10-30T06:57:01.981Z,12.36
2022-10-30T07:02:29.490Z,12.72
2022-10-30T07:07:36.698Z,12.69
2022-10-30T07:12:38.409Z,12.73
2022-10-30T07:17:58.942Z,12.67
2022-10-30T07:23:01.800Z,12.63
2022-10-30T07:28:03.756Z,13.00
2022-10-30T07:33:11.626Z,12.83
2022-10-30T07:38:49.663Z,13.17
2022-10-30T07:44:02.973Z,13.20
2022-10-30T07:49:30.776Z,13.24
2022-10-30T07:54:36.626Z,13.37
2022-10-30T07:59:56.963Z,13.58
2022-10-30T08:05:17.222Z,13.79
2022-10-30T08:10:41.120Z,13.75
2022-10-30T08:15:43.122Z,13.80
2022-10-30T08:20:50.440Z,13.83
2022-10-30T08:25:52.254Z,13.92
2022-10-30T08:30:54.154Z,13.87
2022-10-30T08:36:08.848Z,13.80
2022-10-30T08:41:10.462Z,13.83
2022-10-30T08:46:18.836Z,14.21
2022-10-30T08:51:21.018Z,14.47
2022-10-30T08:56:22.620Z,14.41
2022-10-30T09:01:37.202Z,14.58
2022-10-30T09:06:53.808Z,14.74
2022-10-30T09:12:16.965Z,15.02
2022-10-30T09:17:20.524Z,15.20
2022-10-30T09:22:22.558Z,15.20
2022-10-30T09:27:24.660Z,15.36
2022-10-30T09:32:30.266Z,15.34
2022-10-30T09:37:40.774Z,15.46
2022-10-30T09:42:50.860Z,15.41
2022-10-30T09:48:08.462Z,15.59
2022-10-30T09:53:48.720Z,15.73
2022-10-30T09:59:08.641Z,15.70
2022-10-30T10:04:30.537Z,16.01
2022-10-30T10:09:49.735Z,16.16
2022-10-30T10:15:16.957Z,16.93
2022-10-30T10:20:35.883Z,17.84
2022-10-30T10:25:41.615Z,18.60
2022-10-30T10:31:21.679Z,19.54
2022-10-30T10:36:43.566Z,19.66
2022-10-30T10:41:55.716Z,19.40
2022-10-30T10:47:27.757Z,19.39
2022-10-30T10:52:43.671Z,19.38
2022-10-30T10:57:46.833Z,19.45
2022-10-30T11:02:51.998Z,19.76
2022-10-30T11:07:59.631Z,20.04
2022-10-30T11:13:01.805Z,20.25
2022-10-30T11:18:08.265Z,20.80
2022-10-30T11:23:38.731Z,21.59
2022-10-30T11:28:50.980Z,21.96
2022-10-30T11:33:52.656Z,22.92
2022-10-30T11:39:08.984Z,22.67
2022-10-30T11:44:11.478Z,22.20
2022-10-30T11:49:41.132Z,21.96
2022-10-30T11:54:48.908Z,21.83
2022-10-30T11:59:54.398Z,21.32
2022-10-30T12:05:01.327Z,21.03
2022-10-30T12:10:04.517Z,20.56
2022-10-30T12:15:21.446Z,20.33
2022-10-30T12:20:23.182Z,20.27
2022-10-30T12:25:32.285Z,20.20
2022-10-30T12:30:41.791Z,20.23
2022-10-30T12:35:58.392Z,20.19
2022-10-30T12:41:32.588Z,19.99
2022-10-30T12:46:42.542Z,19.90
2022-10-30T12:51:54.116Z,19.73
2022-10-30T12:57:15.744Z,19.71
2022-10-30T13:02:42.930Z,19.85
2022-10-30T13:08:02.223Z,19.76
2022-10-30T13:13:12.902Z,19.69
2022-10-30T13:18:26.880Z,19.76
2022-10-30T13:23:47.292Z,19.74
2022-10-30T13:29:07.540Z,19.54
2022-10-30T13:34:50.324Z,19.78
2022-10-30T13:40:05.556Z,19.60
2022-10-30T13:45:32.428Z,19.48
2022-10-30T13:51:13.029Z,19.51
2022-10-30T13:56:18.593Z,19.28
2022-10-30T14:01:32.467Z,19.39
2022-10-30T14:06:46.385Z,19.18
2022-10-30T14:11:48.113Z,19.27
2022-10-30T14:17:17.034Z,18.94
2022-10-30T14:22:24.907Z,18.80
2022-10-30T14:27:33.463Z,18.71
2022-10-30T14:32:38.610Z,18.72
2022-10-30T14:37:40.281Z,18.71
2022-10-30T14:42:52.588Z,18.35
2022-10-30T14:48:15.129Z,18.26
2022-10-30T14:53:28.929Z,18.18
2022-10-30T14:58:34.366Z,18.02
2022-10-30T15:03:44.173Z,17.77
2022-10-30T15:08:54.951Z,17.50
2022-10-30T15:14:00.763Z,17.32
2022-10-30T15:19:08.101Z,17.27
2022-10-30T15:24:17.192Z,17.12
2022-10-30T15:29:22.605Z,16.78
2022-10-30T15:34:26.156Z,16.53
2022-10-30T15:39:27.872Z,16.40
2022-10-30T15:44:33.298Z,16.52
2022-10-30T15:49:41.377Z,16.54
2022-10-30T15:54:46.064Z,16.32
2022-10-30T15:59:56.369Z,16.13
2022-10-30T16:04:58.245Z,16.09
2022-10-30T16:10:02.913Z,15.84
2022-10-30T16:15:08.813Z,15.62
2022-10-30T16:20:11.985Z,15.49
2022-10-30T16:25:17.489Z,15.44
2022-10-30T16:30:19.304Z,15.21
2022-10-30T16:35:24.399Z,14.91
2022-10-30T16:40:28.628Z,14.71
2022-10-30T16:45:33.942Z,14.45
2022-10-30T16:50:38.262Z,14.32
2022-10-30T16:55:40.207Z,14.36
2022-10-30T17:01:02.315Z,14.22
2022-10-30T17:06:44.765Z,14.03
2022-10-30T17:12:01.063Z,14.13
2022-10-30T17:17:02.876Z,13.74
2022-10-30T17:22:13.977Z,13.48
2022-10-30T17:27:36.271Z,13.43
2022-10-30T17:32:45.164Z,13.42
2022-10-30T17:37:46.926Z,13.40
2022-10-30T17:42:49.666Z,13.34
2022-10-30T17:47:51.506Z,13.25
2022-10-30T17:52:53.079Z,13.21
2022-10-30T17:57:54.721Z,13.10
2022-10-30T18:02:56.549Z,13.38
2022-10-30T18:07:59.222Z,13.51
2022-10-30T18:13:01.254Z,13.46
2022-10-30T18:18:03.702Z,13.56
2022-10-30T18:23:38.780Z,13.35
2022-10-30T18:28:41.317Z,13.31
2022-10-30T18:33:43.406Z,13.03
2022-10-30T18:38:45.017Z,12.83
2022-10-30T18:43:47.198Z,12.62
2022-10-30T18:48:49.178Z,12.76
2022-10-30T18:53:52.090Z,12.46
2022-10-30T18:58:58.648Z,12.33
2022-10-30T19:04:05.864Z,12.34
2022-10-30T19:09:07.477Z,12.10
2022-10-30T19:14:12.510Z,12.08
2022-10-30T19:19:15.075Z,12.24
2022-10-30T19:24:17.937Z,11.97
2022-10-30T19:29:20.094Z,11.78
2022-10-30T19:34:21.748Z,11.90
2022-10-30T19:39:23.463Z,11.75
2022-10-30T19:44:25.083Z,11.84
2022-10-30T19:49:26.820Z,11.82
2022-10-30T19:54:28.498Z,11.89
2022-10-30T19:59:30.047Z,11.78
2022-10-30T20:04:31.726Z,11.73
2022-10-30T20:09:33.529Z,11.65
2022-10-30T20:14:35.364Z,11.50
2022-10-30T20:19:37.166Z,11.35
2022-10-30T20:24:38.767Z,11.25
2022-10-30T20:29:43.442Z,11.25
2022-10-30T20:34:45.089Z,11.13
2022-10-30T20:39:51.690Z,11.11
2022-10-30T20:44:53.549Z,11.01
2022-10-30T20:49:55.243Z,11.07
2022-10-30T20:54:57.245Z,10.92
2022-10-30T20:59:59.066Z,10.74
2022-10-30T21:05:11.506Z,11.09
2022-10-30T21:10:26.509Z,10.72
2022-10-30T21:15:30.997Z,10.93
2022-10-30T21:20:32.637Z,10.57
2022-10-30T21:25:34.787Z,10.59
2022-10-30T21:30:36.652Z,10.90
2022-10-30T21:35:38.289Z,10.80
2022-10-30T21:40:40.726Z,10.50
2022-10-30T21:45:43.001Z,10.38
2022-10-30T21:50:44.604Z,10.44
2022-10-30T21:55:46.305Z,10.53
2022-10-30T22:00:48.437Z,10.47
2022-10-30T22:05:50.235Z,10.55
2022-10-30T22:10:51.812Z,10.43
2022-10-30T22:15:56.189Z,10.17
2022-10-30T22:21:03.960Z,10.44
2022-10-30T22:26:09.362Z,10.37
2022-10-30T22:31:17.205Z,10.06
2022-10-30T22:36:25.890Z,9.97
2022-10-30T22:41:32.900Z,10.07
2022-10-30T22:46:39.104Z,10.24
2022-10-30T22:51:41.072Z,10.27
2022-10-30T22:56:42.995Z,10.17
2022-10-30T23:01:45.062Z,10.19
2022-10-30T23:06:47.048Z,10.16
2022-10-30T23:11:49.764Z,10.06
2022-10-30T23:16:52.039Z,9.96
2022-10-30T23:21:58.049Z,9.74
2022-10-30T23:26:59.665Z,9.68
2022-10-30T23:32:01.457Z,9.79
2022-10-30T23:37:03.182Z,9.67
2022-10-30T23:42:05.324Z,9.88
2022-10-30T23:47:06.959Z,9.58
2022-10-30T23:52:08.798Z,9.42
2022-10-30T23:57:10.561Z,9.66
